OPA Logo
 
ASOS:
At:2021.03.03 0815 UTC
Wind:200° @ 4KT
Viz: 10 mile(s)
Sky: clear
Temp: 33 F (1 C)
DewP: 28 F (-2 C):1
RH: 24 F (-4 C)
Baro: 24 F (-4 C)
ob: KBDN 030815Z AUTO 20004KT 10SM CLR 01/M04 A2988 RMK AO2

ASOS: KRDM
At:2021.03.03 0756 UTC
Wind:170° @ 5KT
Viz: 10 mile(s)
Sky: clear
Temp: 30.9 F (-0.6 C)
DewP: 24 F (-4 C):1
RH: 24.1 F (-4.4 C)
Baro: 24.1 F (-4.4 C)
ob: KRDM 030756Z AUTO 17005KT 10SM CLR M01/M04 A2986 RMK AO2 SLP116 T10061044 401671044
Apache-SSL Logo

Valid HTML 4.01!

Local FAA Notices



15 May 2002 - FAA APPROVES 4 new antennas near St. Charles Hospital


2 May 2002, FAA Northwest Mountain Region Letter to Airmen 02-01

VFR Practice Approaches: Page 1, Page 2, Page 3, Page 4.


11 Apr 2002 - FAA Public Notice, 4 new antennas near St. Charles Hospital



Web page by: gem@rellim.com